sensor_id;sensor_type;location;lat;lon;timestamp;P1;durP1;ratioP1;P2;durP2;ratioP2
55069;SDS011;40967;52.070;8.596;2023-07-31T00:01:20;0.60;;;0.40;;
55069;SDS011;40967;52.070;8.596;2023-07-31T00:03:45;0.93;;;0.50;;
55069;SDS011;40967;52.070;8.596;2023-07-31T00:06:11;1.27;;;0.50;;
55069;SDS011;40967;52.070;8.596;2023-07-31T00:08:37;0.90;;;0.40;;
55069;SDS011;40967;52.070;8.596;2023-07-31T00:11:02;0.53;;;0.30;;
55069;SDS011;40967;52.070;8.596;2023-07-31T00:13:27;0.73;;;0.40;;
55069;SDS011;40967;52.070;8.596;2023-07-31T00:15:53;0.70;;;0.40;;
55069;SDS011;40967;52.070;8.596;2023-07-31T00:18:18;0.70;;;0.40;;
55069;SDS011;40967;52.070;8.596;2023-07-31T00:20:44;0.50;;;0.27;;
55069;SDS011;40967;52.070;8.596;2023-07-31T00:23:09;0.40;;;0.30;;
55069;SDS011;40967;52.070;8.596;2023-07-31T00:25:34;0.70;;;0.40;;
55069;SDS011;40967;52.070;8.596;2023-07-31T00:28:00;0.40;;;0.30;;
55069;SDS011;40967;52.070;8.596;2023-07-31T00:30:25;0.80;;;0.50;;
55069;SDS011;40967;52.070;8.596;2023-07-31T00:32:52;0.60;;;0.30;;
55069;SDS011;40967;52.070;8.596;2023-07-31T00:35:17;0.38;;;0.30;;
55069;SDS011;40967;52.070;8.596;2023-07-31T00:37:42;0.30;;;0.30;;
55069;SDS011;40967;52.070;8.596;2023-07-31T00:40:08;0.73;;;0.50;;
55069;SDS011;40967;52.070;8.596;2023-07-31T00:42:34;0.70;;;0.40;;
55069;SDS011;40967;52.070;8.596;2023-07-31T00:44:59;0.77;;;0.50;;
55069;SDS011;40967;52.070;8.596;2023-07-31T00:47:24;1.07;;;0.70;;
55069;SDS011;40967;52.070;8.596;2023-07-31T00:49:50;1.00;;;0.50;;
55069;SDS011;40967;52.070;8.596;2023-07-31T00:52:16;1.05;;;0.50;;
55069;SDS011;40967;52.070;8.596;2023-07-31T00:54:42;0.98;;;0.60;;
55069;SDS011;40967;52.070;8.596;2023-07-31T00:57:08;1.10;;;0.77;;
55069;SDS011;40967;52.070;8.596;2023-07-31T00:59:34;0.77;;;0.57;;
55069;SDS011;40967;52.070;8.596;2023-07-31T01:01:59;1.13;;;0.70;;
55069;SDS011;40967;52.070;8.596;2023-07-31T01:04:25;1.03;;;0.70;;
55069;SDS011;40967;52.070;8.596;2023-07-31T01:07:14;1.02;;;0.63;;
55069;SDS011;40967;52.070;8.596;2023-07-31T01:12:20;1.30;;;0.80;;
55069;SDS011;40967;52.070;8.596;2023-07-31T01:17:29;0.90;;;0.70;;
55069;SDS011;40967;52.070;8.596;2023-07-31T01:19:59;1.50;;;0.90;;
55069;SDS011;40967;52.070;8.596;2023-07-31T01:22:36;1.33;;;0.73;;
55069;SDS011;40967;52.070;8.596;2023-07-31T01:27:59;2.35;;;0.93;;
55069;SDS011;40967;52.070;8.596;2023-07-31T01:30:31;1.85;;;0.90;;
55069;SDS011;40967;52.070;8.596;2023-07-31T01:33:02;1.80;;;1.00;;
55069;SDS011;40967;52.070;8.596;2023-07-31T01:35:36;1.92;;;1.00;;
55069;SDS011;40967;52.070;8.596;2023-07-31T01:38:02;1.65;;;1.00;;
55069;SDS011;40967;52.070;8.596;2023-07-31T01:40:28;2.42;;;1.30;;
55069;SDS011;40967;52.070;8.596;2023-07-31T01:42:53;1.42;;;0.90;;
55069;SDS011;40967;52.070;8.596;2023-07-31T01:45:19;1.93;;;0.90;;
55069;SDS011;40967;52.070;8.596;2023-07-31T01:47:44;1.93;;;0.90;;
55069;SDS011;40967;52.070;8.596;2023-07-31T01:50:10;2.90;;;1.07;;
55069;SDS011;40967;52.070;8.596;2023-07-31T01:52:36;2.25;;;1.10;;
55069;SDS011;40967;52.070;8.596;2023-07-31T01:55:01;2.03;;;1.10;;
55069;SDS011;40967;52.070;8.596;2023-07-31T01:57:26;2.13;;;1.07;;
55069;SDS011;40967;52.070;8.596;2023-07-31T01:59:52;1.60;;;0.90;;
55069;SDS011;40967;52.070;8.596;2023-07-31T02:02:18;1.95;;;0.90;;
55069;SDS011;40967;52.070;8.596;2023-07-31T02:04:44;2.20;;;0.90;;
55069;SDS011;40967;52.070;8.596;2023-07-31T02:07:12;2.00;;;0.90;;
55069;SDS011;40967;52.070;8.596;2023-07-31T02:09:37;1.70;;;0.80;;
55069;SDS011;40967;52.070;8.596;2023-07-31T02:12:02;0.97;;;0.60;;
55069;SDS011;40967;52.070;8.596;2023-07-31T02:14:28;1.37;;;0.80;;
55069;SDS011;40967;52.070;8.596;2023-07-31T02:16:53;1.47;;;0.80;;
55069;SDS011;40967;52.070;8.596;2023-07-31T02:19:19;1.40;;;0.77;;
55069;SDS011;40967;52.070;8.596;2023-07-31T02:21:47;1.88;;;0.80;;
55069;SDS011;40967;52.070;8.596;2023-07-31T02:24:13;1.17;;;0.70;;
55069;SDS011;40967;52.070;8.596;2023-07-31T02:26:39;2.07;;;0.70;;
55069;SDS011;40967;52.070;8.596;2023-07-31T02:29:04;1.67;;;0.80;;
55069;SDS011;40967;52.070;8.596;2023-07-31T02:31:29;0.87;;;0.50;;
55069;SDS011;40967;52.070;8.596;2023-07-31T02:33:55;1.40;;;0.68;;
55069;SDS011;40967;52.070;8.596;2023-07-31T02:36:20;0.98;;;0.52;;
55069;SDS011;40967;52.070;8.596;2023-07-31T02:38:46;1.48;;;0.68;;
55069;SDS011;40967;52.070;8.596;2023-07-31T02:41:11;1.30;;;0.50;;
55069;SDS011;40967;52.070;8.596;2023-07-31T02:43:36;0.97;;;0.50;;
55069;SDS011;40967;52.070;8.596;2023-07-31T02:46:02;1.10;;;0.60;;
55069;SDS011;40967;52.070;8.596;2023-07-31T02:48:27;0.87;;;0.50;;
55069;SDS011;40967;52.070;8.596;2023-07-31T02:50:53;0.83;;;0.50;;
55069;SDS011;40967;52.070;8.596;2023-07-31T02:53:18;1.00;;;0.50;;
55069;SDS011;40967;52.070;8.596;2023-07-31T02:55:44;1.35;;;0.55;;
55069;SDS011;40967;52.070;8.596;2023-07-31T02:58:09;0.90;;;0.40;;
55069;SDS011;40967;52.070;8.596;2023-07-31T03:00:34;0.80;;;0.45;;
55069;SDS011;40967;52.070;8.596;2023-07-31T03:03:00;0.90;;;0.40;;
55069;SDS011;40967;52.070;8.596;2023-07-31T03:05:25;0.50;;;0.30;;
55069;SDS011;40967;52.070;8.596;2023-07-31T03:07:50;0.60;;;0.30;;
55069;SDS011;40967;52.070;8.596;2023-07-31T03:10:16;0.60;;;0.30;;
55069;SDS011;40967;52.070;8.596;2023-07-31T03:12:41;0.60;;;0.37;;
55069;SDS011;40967;52.070;8.596;2023-07-31T03:15:07;0.60;;;0.40;;
55069;SDS011;40967;52.070;8.596;2023-07-31T03:17:33;0.60;;;0.35;;
55069;SDS011;40967;52.070;8.596;2023-07-31T03:19:58;0.40;;;0.30;;
55069;SDS011;40967;52.070;8.596;2023-07-31T03:22:23;0.60;;;0.20;;
55069;SDS011;40967;52.070;8.596;2023-07-31T03:24:49;0.60;;;0.30;;
55069;SDS011;40967;52.070;8.596;2023-07-31T03:27:14;0.40;;;0.20;;
55069;SDS011;40967;52.070;8.596;2023-07-31T03:29:40;0.37;;;0.27;;
55069;SDS011;40967;52.070;8.596;2023-07-31T03:32:05;1.40;;;0.60;;
55069;SDS011;40967;52.070;8.596;2023-07-31T03:34:31;0.80;;;0.50;;
55069;SDS011;40967;52.070;8.596;2023-07-31T03:36:57;1.23;;;0.80;;
55069;SDS011;40967;52.070;8.596;2023-07-31T03:39:23;1.90;;;0.90;;
55069;SDS011;40967;52.070;8.596;2023-07-31T03:41:48;3.40;;;1.60;;
55069;SDS011;40967;52.070;8.596;2023-07-31T03:44:13;3.07;;;1.80;;
55069;SDS011;40967;52.070;8.596;2023-07-31T03:46:39;3.30;;;1.80;;
55069;SDS011;40967;52.070;8.596;2023-07-31T03:49:04;3.23;;;2.10;;
55069;SDS011;40967;52.070;8.596;2023-07-31T03:51:30;5.47;;;2.70;;
55069;SDS011;40967;52.070;8.596;2023-07-31T03:53:55;9.37;;;5.33;;
55069;SDS011;40967;52.070;8.596;2023-07-31T03:56:20;6.33;;;4.10;;
55069;SDS011;40967;52.070;8.596;2023-07-31T03:58:46;8.37;;;4.80;;
55069;SDS011;40967;52.070;8.596;2023-07-31T04:01:11;8.03;;;5.03;;
55069;SDS011;40967;52.070;8.596;2023-07-31T04:03:36;8.77;;;5.57;;
55069;SDS011;40967;52.070;8.596;2023-07-31T04:06:02;10.02;;;5.45;;
55069;SDS011;40967;52.070;8.596;2023-07-31T04:08:27;11.20;;;5.72;;
55069;SDS011;40967;52.070;8.596;2023-07-31T04:10:53;9.47;;;5.57;;
55069;SDS011;40967;52.070;8.596;2023-07-31T04:13:18;9.97;;;6.30;;
55069;SDS011;40967;52.070;8.596;2023-07-31T04:15:47;15.00;;;7.82;;
55069;SDS011;40967;52.070;8.596;2023-07-31T04:18:16;10.65;;;6.50;;
55069;SDS011;40967;52.070;8.596;2023-07-31T04:20:42;13.80;;;7.97;;
55069;SDS011;40967;52.070;8.596;2023-07-31T04:23:07;9.88;;;6.03;;
55069;SDS011;40967;52.070;8.596;2023-07-31T04:25:32;11.88;;;7.05;;
55069;SDS011;40967;52.070;8.596;2023-07-31T04:28:02;11.73;;;7.30;;
55069;SDS011;40967;52.070;8.596;2023-07-31T04:30:28;12.48;;;7.25;;
55069;SDS011;40967;52.070;8.596;2023-07-31T04:32:53;14.77;;;8.33;;
55069;SDS011;40967;52.070;8.596;2023-07-31T04:35:18;14.60;;;8.00;;
55069;SDS011;40967;52.070;8.596;2023-07-31T04:37:44;14.70;;;8.27;;
55069;SDS011;40967;52.070;8.596;2023-07-31T04:40:11;10.97;;;6.30;;
55069;SDS011;40967;52.070;8.596;2023-07-31T04:42:36;13.77;;;7.40;;
55069;SDS011;40967;52.070;8.596;2023-07-31T04:45:02;13.43;;;7.73;;
55069;SDS011;40967;52.070;8.596;2023-07-31T04:47:27;12.07;;;7.05;;
55069;SDS011;40967;52.070;8.596;2023-07-31T04:49:53;11.40;;;6.83;;
55069;SDS011;40967;52.070;8.596;2023-07-31T04:52:18;12.97;;;7.13;;
55069;SDS011;40967;52.070;8.596;2023-07-31T04:54:44;12.47;;;7.10;;
55069;SDS011;40967;52.070;8.596;2023-07-31T04:57:09;12.00;;;7.60;;
55069;SDS011;40967;52.070;8.596;2023-07-31T04:59:34;13.07;;;7.27;;
55069;SDS011;40967;52.070;8.596;2023-07-31T05:02:00;11.40;;;7.10;;
55069;SDS011;40967;52.070;8.596;2023-07-31T05:04:25;12.80;;;7.37;;
55069;SDS011;40967;52.070;8.596;2023-07-31T05:06:51;15.70;;;7.67;;
55069;SDS011;40967;52.070;8.596;2023-07-31T05:09:16;13.23;;;6.67;;
55069;SDS011;40967;52.070;8.596;2023-07-31T05:11:41;10.80;;;6.20;;
55069;SDS011;40967;52.070;8.596;2023-07-31T05:14:08;9.25;;;6.00;;
55069;SDS011;40967;52.070;8.596;2023-07-31T05:16:33;11.55;;;6.20;;
55069;SDS011;40967;52.070;8.596;2023-07-31T05:18:59;11.40;;;6.10;;
55069;SDS011;40967;52.070;8.596;2023-07-31T05:21:24;10.77;;;6.37;;
55069;SDS011;40967;52.070;8.596;2023-07-31T05:23:52;14.60;;;6.97;;
55069;SDS011;40967;52.070;8.596;2023-07-31T05:26:18;9.10;;;5.60;;
55069;SDS011;40967;52.070;8.596;2023-07-31T05:28:44;8.80;;;5.30;;
55069;SDS011;40967;52.070;8.596;2023-07-31T05:31:09;15.50;;;6.80;;
55069;SDS011;40967;52.070;8.596;2023-07-31T05:33:34;12.70;;;5.87;;
55069;SDS011;40967;52.070;8.596;2023-07-31T05:36:00;11.83;;;5.70;;
55069;SDS011;40967;52.070;8.596;2023-07-31T05:38:25;11.93;;;5.70;;
55069;SDS011;40967;52.070;8.596;2023-07-31T05:40:50;14.73;;;6.03;;
55069;SDS011;40967;52.070;8.596;2023-07-31T05:43:16;8.27;;;4.50;;
55069;SDS011;40967;52.070;8.596;2023-07-31T05:45:42;9.55;;;4.78;;
55069;SDS011;40967;52.070;8.596;2023-07-31T05:48:08;9.60;;;4.88;;
55069;SDS011;40967;52.070;8.596;2023-07-31T05:50:33;8.60;;;4.60;;
55069;SDS011;40967;52.070;8.596;2023-07-31T05:52:59;10.27;;;3.90;;
55069;SDS011;40967;52.070;8.596;2023-07-31T05:55:24;8.77;;;4.07;;
55069;SDS011;40967;52.070;8.596;2023-07-31T05:57:52;8.57;;;3.90;;
55069;SDS011;40967;52.070;8.596;2023-07-31T06:00:18;10.15;;;4.22;;
55069;SDS011;40967;52.070;8.596;2023-07-31T06:02:43;8.40;;;3.97;;
55069;SDS011;40967;52.070;8.596;2023-07-31T06:05:08;10.77;;;4.73;;
55069;SDS011;40967;52.070;8.596;2023-07-31T06:07:34;8.80;;;4.35;;
55069;SDS011;40967;52.070;8.596;2023-07-31T06:09:59;8.88;;;4.25;;
55069;SDS011;40967;52.070;8.596;2023-07-31T06:12:34;12.30;;;4.93;;
55069;SDS011;40967;52.070;8.596;2023-07-31T06:15:00;10.50;;;4.47;;
55069;SDS011;40967;52.070;8.596;2023-07-31T06:17:30;8.68;;;4.05;;
55069;SDS011;40967;52.070;8.596;2023-07-31T06:19:55;9.10;;;4.30;;
55069;SDS011;40967;52.070;8.596;2023-07-31T06:22:21;7.63;;;3.75;;
55069;SDS011;40967;52.070;8.596;2023-07-31T06:24:47;8.20;;;3.63;;
55069;SDS011;40967;52.070;8.596;2023-07-31T06:27:12;10.07;;;3.80;;
55069;SDS011;40967;52.070;8.596;2023-07-31T06:29:37;7.77;;;3.67;;
55069;SDS011;40967;52.070;8.596;2023-07-31T06:32:03;7.07;;;3.70;;
55069;SDS011;40967;52.070;8.596;2023-07-31T06:34:28;9.45;;;3.80;;
55069;SDS011;40967;52.070;8.596;2023-07-31T06:36:55;6.38;;;3.13;;
55069;SDS011;40967;52.070;8.596;2023-07-31T06:39:23;8.05;;;3.55;;
55069;SDS011;40967;52.070;8.596;2023-07-31T06:41:49;5.60;;;3.23;;
55069;SDS011;40967;52.070;8.596;2023-07-31T06:44:14;6.37;;;3.17;;
55069;SDS011;40967;52.070;8.596;2023-07-31T06:46:39;5.87;;;2.80;;
55069;SDS011;40967;52.070;8.596;2023-07-31T06:49:05;5.30;;;2.80;;
55069;SDS011;40967;52.070;8.596;2023-07-31T06:51:31;9.37;;;3.50;;
55069;SDS011;40967;52.070;8.596;2023-07-31T06:53:56;7.22;;;3.40;;
55069;SDS011;40967;52.070;8.596;2023-07-31T06:56:22;6.93;;;3.38;;
55069;SDS011;40967;52.070;8.596;2023-07-31T06:58:48;7.28;;;2.83;;
55069;SDS011;40967;52.070;8.596;2023-07-31T07:01:13;5.90;;;2.90;;
55069;SDS011;40967;52.070;8.596;2023-07-31T07:03:39;6.30;;;2.40;;
55069;SDS011;40967;52.070;8.596;2023-07-31T07:06:04;6.03;;;2.97;;
55069;SDS011;40967;52.070;8.596;2023-07-31T07:08:29;4.97;;;2.50;;
55069;SDS011;40967;52.070;8.596;2023-07-31T07:10:55;5.63;;;2.83;;
55069;SDS011;40967;52.070;8.596;2023-07-31T07:13:21;9.97;;;3.90;;
55069;SDS011;40967;52.070;8.596;2023-07-31T07:15:50;7.87;;;3.50;;
55069;SDS011;40967;52.070;8.596;2023-07-31T07:18:16;6.33;;;3.33;;
55069;SDS011;40967;52.070;8.596;2023-07-31T07:20:52;7.38;;;3.17;;
55069;SDS011;40967;52.070;8.596;2023-07-31T07:23:19;6.45;;;3.10;;
55069;SDS011;40967;52.070;8.596;2023-07-31T07:25:46;5.50;;;2.87;;
55069;SDS011;40967;52.070;8.596;2023-07-31T07:28:12;5.65;;;2.60;;
55069;SDS011;40967;52.070;8.596;2023-07-31T07:30:38;6.37;;;3.40;;
55069;SDS011;40967;52.070;8.596;2023-07-31T07:33:03;6.40;;;3.53;;
55069;SDS011;40967;52.070;8.596;2023-07-31T07:35:29;6.40;;;3.30;;
55069;SDS011;40967;52.070;8.596;2023-07-31T07:37:54;6.45;;;3.40;;
55069;SDS011;40967;52.070;8.596;2023-07-31T07:40:21;7.47;;;4.13;;
55069;SDS011;40967;52.070;8.596;2023-07-31T07:42:46;5.40;;;3.03;;
55069;SDS011;40967;52.070;8.596;2023-07-31T07:45:12;5.07;;;2.90;;
55069;SDS011;40967;52.070;8.596;2023-07-31T07:47:40;4.63;;;2.67;;
55069;SDS011;40967;52.070;8.596;2023-07-31T07:50:06;6.38;;;3.30;;
55069;SDS011;40967;52.070;8.596;2023-07-31T07:52:32;7.70;;;3.95;;
55069;SDS011;40967;52.070;8.596;2023-07-31T07:54:57;5.83;;;3.40;;
55069;SDS011;40967;52.070;8.596;2023-07-31T07:57:23;5.93;;;3.30;;
55069;SDS011;40967;52.070;8.596;2023-07-31T07:59:48;7.50;;;3.53;;
55069;SDS011;40967;52.070;8.596;2023-07-31T08:02:14;11.33;;;3.90;;
55069;SDS011;40967;52.070;8.596;2023-07-31T08:04:39;6.10;;;3.30;;
55069;SDS011;40967;52.070;8.596;2023-07-31T08:07:05;7.07;;;3.40;;
55069;SDS011;40967;52.070;8.596;2023-07-31T08:09:30;5.87;;;3.10;;
55069;SDS011;40967;52.070;8.596;2023-07-31T08:11:55;5.50;;;2.90;;
55069;SDS011;40967;52.070;8.596;2023-07-31T08:14:26;4.88;;;2.90;;
55069;SDS011;40967;52.070;8.596;2023-07-31T08:16:52;5.23;;;2.90;;
55069;SDS011;40967;52.070;8.596;2023-07-31T08:19:17;4.50;;;2.57;;
55069;SDS011;40967;52.070;8.596;2023-07-31T08:21:43;5.37;;;2.80;;
55069;SDS011;40967;52.070;8.596;2023-07-31T08:24:08;4.80;;;2.20;;
55069;SDS011;40967;52.070;8.596;2023-07-31T08:26:33;4.13;;;2.10;;
55069;SDS011;40967;52.070;8.596;2023-07-31T08:28:59;2.40;;;1.40;;
55069;SDS011;40967;52.070;8.596;2023-07-31T08:31:24;3.45;;;1.77;;
55069;SDS011;40967;52.070;8.596;2023-07-31T08:33:50;3.83;;;1.88;;
55069;SDS011;40967;52.070;8.596;2023-07-31T08:36:15;5.03;;;2.10;;
55069;SDS011;40967;52.070;8.596;2023-07-31T08:38:40;3.80;;;1.90;;
55069;SDS011;40967;52.070;8.596;2023-07-31T08:41:06;4.47;;;2.13;;
55069;SDS011;40967;52.070;8.596;2023-07-31T08:43:31;6.70;;;2.77;;
55069;SDS011;40967;52.070;8.596;2023-07-31T08:45:57;5.15;;;2.40;;
55069;SDS011;40967;52.070;8.596;2023-07-31T08:48:24;4.82;;;2.55;;
55069;SDS011;40967;52.070;8.596;2023-07-31T08:50:53;4.68;;;2.30;;
55069;SDS011;40967;52.070;8.596;2023-07-31T08:53:19;4.78;;;2.60;;
55069;SDS011;40967;52.070;8.596;2023-07-31T08:55:44;5.50;;;3.07;;
55069;SDS011;40967;52.070;8.596;2023-07-31T08:58:09;4.97;;;2.67;;
55069;SDS011;40967;52.070;8.596;2023-07-31T09:00:37;4.50;;;2.50;;
55069;SDS011;40967;52.070;8.596;2023-07-31T09:03:08;5.00;;;2.60;;
55069;SDS011;40967;52.070;8.596;2023-07-31T09:05:37;5.10;;;2.47;;
55069;SDS011;40967;52.070;8.596;2023-07-31T09:08:06;5.38;;;2.60;;
55069;SDS011;40967;52.070;8.596;2023-07-31T09:10:34;4.55;;;2.28;;
55069;SDS011;40967;52.070;8.596;2023-07-31T09:12:59;4.90;;;2.80;;
55069;SDS011;40967;52.070;8.596;2023-07-31T09:15:25;4.97;;;2.40;;
55069;SDS011;40967;52.070;8.596;2023-07-31T09:17:58;4.85;;;2.47;;
55069;SDS011;40967;52.070;8.596;2023-07-31T09:20:28;4.35;;;2.30;;
55069;SDS011;40967;52.070;8.596;2023-07-31T09:22:53;4.28;;;2.03;;
55069;SDS011;40967;52.070;8.596;2023-07-31T09:25:21;4.93;;;2.38;;
55069;SDS011;40967;52.070;8.596;2023-07-31T09:27:58;4.80;;;2.28;;
55069;SDS011;40967;52.070;8.596;2023-07-31T09:30:25;5.40;;;2.30;;
55069;SDS011;40967;52.070;8.596;2023-07-31T09:32:51;4.40;;;2.30;;
55069;SDS011;40967;52.070;8.596;2023-07-31T09:35:32;3.83;;;2.10;;
55069;SDS011;40967;52.070;8.596;2023-07-31T09:38:03;4.27;;;2.20;;
55069;SDS011;40967;52.070;8.596;2023-07-31T09:40:37;3.38;;;1.80;;
55069;SDS011;40967;52.070;8.596;2023-07-31T09:43:06;4.45;;;2.30;;
55069;SDS011;40967;52.070;8.596;2023-07-31T09:45:35;6.15;;;2.92;;
55069;SDS011;40967;52.070;8.596;2023-07-31T09:48:09;4.25;;;2.20;;
55069;SDS011;40967;52.070;8.596;2023-07-31T09:50:46;4.63;;;2.63;;
55069;SDS011;40967;52.070;8.596;2023-07-31T09:53:13;5.23;;;2.53;;
55069;SDS011;40967;52.070;8.596;2023-07-31T09:55:39;4.87;;;2.13;;
55069;SDS011;40967;52.070;8.596;2023-07-31T09:58:07;5.53;;;2.25;;
55069;SDS011;40967;52.070;8.596;2023-07-31T10:00:36;5.47;;;2.60;;
55069;SDS011;40967;52.070;8.596;2023-07-31T10:03:04;4.70;;;2.60;;
55069;SDS011;40967;52.070;8.596;2023-07-31T10:05:36;5.43;;;2.50;;
55069;SDS011;40967;52.070;8.596;2023-07-31T10:08:03;4.95;;;2.60;;
55069;SDS011;40967;52.070;8.596;2023-07-31T10:10:30;4.65;;;2.10;;
55069;SDS011;40967;52.070;8.596;2023-07-31T10:12:57;4.13;;;1.95;;
55069;SDS011;40967;52.070;8.596;2023-07-31T10:15:22;4.05;;;2.28;;
55069;SDS011;40967;52.070;8.596;2023-07-31T10:17:49;4.75;;;2.20;;
55069;SDS011;40967;52.070;8.596;2023-07-31T10:20:15;3.92;;;2.20;;
55069;SDS011;40967;52.070;8.596;2023-07-31T10:22:41;4.97;;;1.90;;
55069;SDS011;40967;52.070;8.596;2023-07-31T10:25:11;4.85;;;2.00;;
55069;SDS011;40967;52.070;8.596;2023-07-31T10:27:38;3.88;;;1.73;;
55069;SDS011;40967;52.070;8.596;2023-07-31T10:30:04;3.60;;;2.00;;
55069;SDS011;40967;52.070;8.596;2023-07-31T10:32:32;2.60;;;1.60;;
55069;SDS011;40967;52.070;8.596;2023-07-31T10:34:59;3.53;;;1.33;;
55069;SDS011;40967;52.070;8.596;2023-07-31T10:37:28;2.78;;;1.40;;
55069;SDS011;40967;52.070;8.596;2023-07-31T10:42:38;3.22;;;1.70;;
55069;SDS011;40967;52.070;8.596;2023-07-31T10:45:14;2.70;;;1.33;;
55069;SDS011;40967;52.070;8.596;2023-07-31T10:47:59;2.85;;;1.52;;
55069;SDS011;40967;52.070;8.596;2023-07-31T10:50:26;2.50;;;1.30;;
55069;SDS011;40967;52.070;8.596;2023-07-31T10:52:52;3.30;;;1.27;;
55069;SDS011;40967;52.070;8.596;2023-07-31T11:00:34;2.08;;;1.10;;
55069;SDS011;40967;52.070;8.596;2023-07-31T11:13:29;2.55;;;1.10;;
55069;SDS011;40967;52.070;8.596;2023-07-31T11:15:55;1.60;;;1.00;;
55069;SDS011;40967;52.070;8.596;2023-07-31T11:18:21;1.83;;;1.00;;
55069;SDS011;40967;52.070;8.596;2023-07-31T11:20:46;1.57;;;0.80;;
55069;SDS011;40967;52.070;8.596;2023-07-31T11:23:12;2.33;;;1.10;;
55069;SDS011;40967;52.070;8.596;2023-07-31T11:25:38;2.60;;;1.15;;
55069;SDS011;40967;52.070;8.596;2023-07-31T11:28:11;2.30;;;1.00;;
55069;SDS011;40967;52.070;8.596;2023-07-31T11:30:38;1.67;;;0.90;;
55069;SDS011;40967;52.070;8.596;2023-07-31T11:33:08;1.80;;;0.98;;
55069;SDS011;40967;52.070;8.596;2023-07-31T11:35:41;2.65;;;1.10;;
55069;SDS011;40967;52.070;8.596;2023-07-31T11:38:09;1.98;;;1.05;;
55069;SDS011;40967;52.070;8.596;2023-07-31T11:40:43;1.70;;;1.00;;
55069;SDS011;40967;52.070;8.596;2023-07-31T11:43:09;2.03;;;1.10;;
55069;SDS011;40967;52.070;8.596;2023-07-31T11:45:36;1.75;;;1.00;;
55069;SDS011;40967;52.070;8.596;2023-07-31T11:48:04;2.10;;;0.90;;
55069;SDS011;40967;52.070;8.596;2023-07-31T11:50:30;1.73;;;1.00;;
55069;SDS011;40967;52.070;8.596;2023-07-31T11:52:59;2.90;;;1.30;;
55069;SDS011;40967;52.070;8.596;2023-07-31T11:55:28;1.90;;;0.95;;
55069;SDS011;40967;52.070;8.596;2023-07-31T11:57:56;2.65;;;1.20;;
55069;SDS011;40967;52.070;8.596;2023-07-31T12:00:23;1.75;;;1.05;;
55069;SDS011;40967;52.070;8.596;2023-07-31T12:02:49;2.03;;;1.00;;
55069;SDS011;40967;52.070;8.596;2023-07-31T12:05:15;2.47;;;1.00;;
55069;SDS011;40967;52.070;8.596;2023-07-31T12:10:10;1.55;;;0.90;;
55069;SDS011;40967;52.070;8.596;2023-07-31T12:12:36;1.97;;;1.03;;
55069;SDS011;40967;52.070;8.596;2023-07-31T12:15:01;2.07;;;1.10;;
55069;SDS011;40967;52.070;8.596;2023-07-31T12:17:27;1.55;;;1.00;;
55069;SDS011;40967;52.070;8.596;2023-07-31T12:19:52;2.17;;;1.00;;
55069;SDS011;40967;52.070;8.596;2023-07-31T12:22:18;2.03;;;1.00;;
55069;SDS011;40967;52.070;8.596;2023-07-31T12:24:46;1.20;;;0.70;;
55069;SDS011;40967;52.070;8.596;2023-07-31T12:27:13;1.85;;;0.90;;
55069;SDS011;40967;52.070;8.596;2023-07-31T12:29:41;1.53;;;0.80;;
55069;SDS011;40967;52.070;8.596;2023-07-31T12:34:46;1.25;;;0.73;;
55069;SDS011;40967;52.070;8.596;2023-07-31T12:37:12;1.02;;;0.70;;
55069;SDS011;40967;52.070;8.596;2023-07-31T12:39:37;1.43;;;0.80;;
55069;SDS011;40967;52.070;8.596;2023-07-31T12:42:03;1.37;;;0.70;;
55069;SDS011;40967;52.070;8.596;2023-07-31T12:44:29;1.70;;;0.80;;
55069;SDS011;40967;52.070;8.596;2023-07-31T12:46:54;1.42;;;1.00;;
55069;SDS011;40967;52.070;8.596;2023-07-31T12:49:19;1.48;;;0.80;;
55069;SDS011;40967;52.070;8.596;2023-07-31T12:51:45;1.30;;;0.73;;
55069;SDS011;40967;52.070;8.596;2023-07-31T12:54:10;1.73;;;1.00;;
55069;SDS011;40967;52.070;8.596;2023-07-31T12:56:35;1.33;;;0.80;;
55069;SDS011;40967;52.070;8.596;2023-07-31T12:59:01;1.27;;;0.80;;
55069;SDS011;40967;52.070;8.596;2023-07-31T13:01:27;1.60;;;1.00;;
55069;SDS011;40967;52.070;8.596;2023-07-31T13:03:52;2.25;;;1.40;;
55069;SDS011;40967;52.070;8.596;2023-07-31T13:06:18;2.17;;;1.27;;
55069;SDS011;40967;52.070;8.596;2023-07-31T13:08:43;3.00;;;2.10;;
55069;SDS011;40967;52.070;8.596;2023-07-31T13:11:08;3.07;;;2.00;;
55069;SDS011;40967;52.070;8.596;2023-07-31T13:13:34;4.00;;;2.30;;
55069;SDS011;40967;52.070;8.596;2023-07-31T13:15:59;3.53;;;2.23;;
55069;SDS011;40967;52.070;8.596;2023-07-31T13:18:24;4.60;;;2.80;;
55069;SDS011;40967;52.070;8.596;2023-07-31T13:20:50;5.03;;;3.20;;
55069;SDS011;40967;52.070;8.596;2023-07-31T13:23:15;4.83;;;3.20;;
55069;SDS011;40967;52.070;8.596;2023-07-31T13:25:41;6.00;;;4.30;;
55069;SDS011;40967;52.070;8.596;2023-07-31T13:28:06;4.67;;;3.30;;
55069;SDS011;40967;52.070;8.596;2023-07-31T13:30:31;5.83;;;3.90;;
55069;SDS011;40967;52.070;8.596;2023-07-31T13:32:57;4.93;;;2.80;;
55069;SDS011;40967;52.070;8.596;2023-07-31T13:35:22;6.17;;;3.17;;
55069;SDS011;40967;52.070;8.596;2023-07-31T13:37:47;4.80;;;3.40;;
55069;SDS011;40967;52.070;8.596;2023-07-31T13:40:13;4.57;;;2.67;;
55069;SDS011;40967;52.070;8.596;2023-07-31T13:42:38;4.13;;;2.50;;
55069;SDS011;40967;52.070;8.596;2023-07-31T13:45:04;5.30;;;3.27;;
55069;SDS011;40967;52.070;8.596;2023-07-31T13:47:33;4.10;;;2.45;;
55069;SDS011;40967;52.070;8.596;2023-07-31T13:49:59;3.85;;;2.33;;
55069;SDS011;40967;52.070;8.596;2023-07-31T13:52:24;3.67;;;2.30;;
55069;SDS011;40967;52.070;8.596;2023-07-31T13:54:50;3.70;;;2.20;;
55069;SDS011;40967;52.070;8.596;2023-07-31T13:57:15;4.87;;;2.67;;
55069;SDS011;40967;52.070;8.596;2023-07-31T13:59:41;4.50;;;2.60;;
55069;SDS011;40967;52.070;8.596;2023-07-31T14:02:09;3.60;;;2.20;;
55069;SDS011;40967;52.070;8.596;2023-07-31T14:04:34;4.15;;;2.15;;
55069;SDS011;40967;52.070;8.596;2023-07-31T14:07:00;5.10;;;3.03;;
55069;SDS011;40967;52.070;8.596;2023-07-31T14:09:25;4.70;;;2.90;;
55069;SDS011;40967;52.070;8.596;2023-07-31T14:11:51;5.43;;;3.08;;
55069;SDS011;40967;52.070;8.596;2023-07-31T14:14:17;5.43;;;3.30;;
55069;SDS011;40967;52.070;8.596;2023-07-31T14:16:43;5.18;;;3.20;;
55069;SDS011;40967;52.070;8.596;2023-07-31T14:19:08;4.85;;;3.17;;
55069;SDS011;40967;52.070;8.596;2023-07-31T14:21:34;4.63;;;3.00;;
55069;SDS011;40967;52.070;8.596;2023-07-31T14:24:00;4.80;;;2.97;;
55069;SDS011;40967;52.070;8.596;2023-07-31T14:26:25;5.60;;;2.80;;
55069;SDS011;40967;52.070;8.596;2023-07-31T14:28:50;4.50;;;2.60;;
55069;SDS011;40967;52.070;8.596;2023-07-31T14:31:17;4.13;;;2.87;;
55069;SDS011;40967;52.070;8.596;2023-07-31T14:33:42;4.83;;;3.00;;
55069;SDS011;40967;52.070;8.596;2023-07-31T14:36:08;4.68;;;2.70;;
55069;SDS011;40967;52.070;8.596;2023-07-31T14:38:33;4.67;;;2.67;;
55069;SDS011;40967;52.070;8.596;2023-07-31T14:40:59;4.55;;;2.72;;
55069;SDS011;40967;52.070;8.596;2023-07-31T14:43:24;4.78;;;2.63;;
55069;SDS011;40967;52.070;8.596;2023-07-31T14:45:50;4.38;;;2.58;;
55069;SDS011;40967;52.070;8.596;2023-07-31T14:48:16;3.42;;;2.20;;
55069;SDS011;40967;52.070;8.596;2023-07-31T14:50:41;3.50;;;2.10;;
55069;SDS011;40967;52.070;8.596;2023-07-31T14:53:10;5.70;;;2.80;;
55069;SDS011;40967;52.070;8.596;2023-07-31T14:55:35;4.75;;;3.20;;
55069;SDS011;40967;52.070;8.596;2023-07-31T14:58:01;5.00;;;3.20;;
55069;SDS011;40967;52.070;8.596;2023-07-31T15:00:26;4.53;;;3.10;;
55069;SDS011;40967;52.070;8.596;2023-07-31T15:02:54;4.57;;;3.23;;
55069;SDS011;40967;52.070;8.596;2023-07-31T15:05:23;5.40;;;3.45;;
55069;SDS011;40967;52.070;8.596;2023-07-31T15:07:48;4.57;;;3.30;;
55069;SDS011;40967;52.070;8.596;2023-07-31T15:10:14;4.83;;;3.07;;
55069;SDS011;40967;52.070;8.596;2023-07-31T15:12:39;3.90;;;2.57;;